createdAt,value
2023-05-12T00:03:04.035Z,6.70
2023-05-12T00:06:08.191Z,6.20
2023-05-12T00:09:11.379Z,8.23
2023-05-12T00:12:14.696Z,7.37
2023-05-12T00:15:20.028Z,7.00
2023-05-12T00:18:23.402Z,6.85
2023-05-12T00:21:27.207Z,8.83
2023-05-12T00:24:30.729Z,6.25
2023-05-12T00:27:33.726Z,6.30
2023-05-12T00:30:37.081Z,6.65
2023-05-12T00:33:40.597Z,8.25
2023-05-12T00:36:44.031Z,6.70
2023-05-12T00:39:47.219Z,8.55
2023-05-12T00:42:50.481Z,7.57
2023-05-12T00:45:53.829Z,6.18
2023-05-12T00:48:57.857Z,7.83
2023-05-12T00:52:03.356Z,7.82
2023-05-12T00:55:07.087Z,7.30
2023-05-12T00:58:10.142Z,7.12
2023-05-12T01:01:14.273Z,8.40
2023-05-12T01:04:18.963Z,7.07
2023-05-12T01:07:23.245Z,6.28
2023-05-12T01:10:26.355Z,8.48
2023-05-12T01:13:29.620Z,7.68
2023-05-12T01:16:38.894Z,6.85
2023-05-12T01:19:50.588Z,7.43
2023-05-12T01:22:55.455Z,7.70
2023-05-12T01:26:10.313Z,7.47
2023-05-12T01:29:13.765Z,7.18
2023-05-12T01:32:18.522Z,8.47
2023-05-12T01:35:21.627Z,8.65
2023-05-12T01:38:25.378Z,11.10
2023-05-12T01:41:28.921Z,10.52
2023-05-12T01:44:32.626Z,10.13
2023-05-12T01:47:36.157Z,8.57
2023-05-12T01:50:39.766Z,10.88
2023-05-12T01:53:43.318Z,6.97
2023-05-12T01:56:47.554Z,8.50
2023-05-12T01:59:51.222Z,8.57
2023-05-12T02:02:54.741Z,8.93
2023-05-12T02:05:58.771Z,9.80
2023-05-12T02:09:02.116Z,8.55
2023-05-12T02:12:05.847Z,12.32
2023-05-12T02:15:09.419Z,9.87
2023-05-12T02:18:13.454Z,10.65
2023-05-12T02:21:16.669Z,9.07
2023-05-12T02:24:21.432Z,9.25
2023-05-12T02:27:24.929Z,12.90
2023-05-12T02:30:28.396Z,10.70
2023-05-12T02:33:31.869Z,9.02
2023-05-12T02:36:36.898Z,11.12
2023-05-12T02:39:42.492Z,10.88
2023-05-12T02:42:46.026Z,9.60
2023-05-12T02:45:50.090Z,10.35
2023-05-12T02:48:53.404Z,13.18
2023-05-12T02:51:56.478Z,12.98
2023-05-12T02:55:00.021Z,11.50
2023-05-12T02:58:03.767Z,11.20
2023-05-12T03:01:11.155Z,10.82
2023-05-12T03:04:15.055Z,8.68
2023-05-12T03:07:18.451Z,10.10
2023-05-12T03:10:22.551Z,12.00
2023-05-12T03:13:26.189Z,11.07
2023-05-12T03:16:29.295Z,10.43
2023-05-12T03:19:33.038Z,13.32
2023-05-12T03:22:36.460Z,12.27
2023-05-12T03:25:39.822Z,9.07
2023-05-12T03:28:43.501Z,10.30
2023-05-12T03:31:47.937Z,9.98
2023-05-12T03:34:51.048Z,9.23
2023-05-12T03:37:55.386Z,10.18
2023-05-12T03:41:05.846Z,9.85
2023-05-12T03:44:11.260Z,10.18
2023-05-12T03:47:15.680Z,12.60
2023-05-12T03:50:19.270Z,11.70
2023-05-12T03:53:23.266Z,9.10
2023-05-12T03:56:28.611Z,10.82
2023-05-12T03:59:32.421Z,9.83
2023-05-12T04:02:35.875Z,10.85
2023-05-12T04:05:39.640Z,9.70
2023-05-12T04:08:42.844Z,9.75
2023-05-12T04:11:46.120Z,8.30
2023-05-12T04:14:49.079Z,9.83
2023-05-12T04:17:52.650Z,9.10
2023-05-12T04:20:58.706Z,9.27
2023-05-12T04:24:02.402Z,9.48
2023-05-12T04:27:07.266Z,9.05
2023-05-12T04:30:11.283Z,10.45
2023-05-12T04:33:17.381Z,8.65
2023-05-12T04:36:20.897Z,8.85
2023-05-12T04:39:24.567Z,8.00
2023-05-12T04:42:28.463Z,8.93
2023-05-12T04:45:32.417Z,9.07
2023-05-12T04:48:42.121Z,9.02
2023-05-12T04:51:45.405Z,9.73
2023-05-12T04:54:48.845Z,10.07
2023-05-12T04:57:52.575Z,10.52
2023-05-12T05:00:56.289Z,10.85
2023-05-12T05:03:59.559Z,9.63
2023-05-12T05:07:03.054Z,9.93
2023-05-12T05:10:07.629Z,12.03
2023-05-12T05:13:11.347Z,9.98
2023-05-12T05:16:14.447Z,8.50
2023-05-12T05:19:24.382Z,8.93
2023-05-12T05:22:39.915Z,8.15
2023-05-12T05:25:44.991Z,10.17
2023-05-12T05:28:48.303Z,10.80
2023-05-12T05:31:52.867Z,10.80
2023-05-12T05:34:57.386Z,10.02
2023-05-12T05:38:01.329Z,9.10
2023-05-12T05:41:05.980Z,11.13
2023-05-12T05:44:09.334Z,9.90
2023-05-12T05:47:13.279Z,7.53
2023-05-12T05:50:17.402Z,10.82
2023-05-12T05:53:21.158Z,10.80
2023-05-12T05:56:24.811Z,9.65
2023-05-12T05:59:29.376Z,7.80
2023-05-12T06:02:33.616Z,11.65
2023-05-12T06:05:42.340Z,7.10
2023-05-12T06:08:45.969Z,10.47
2023-05-12T06:11:49.522Z,7.50
2023-05-12T06:14:52.851Z,7.90
2023-05-12T06:18:00.299Z,9.20
2023-05-12T06:21:05.275Z,9.63
2023-05-12T06:24:08.664Z,8.77
2023-05-12T06:27:11.837Z,7.03
2023-05-12T06:30:16.300Z,6.40
2023-05-12T06:33:19.685Z,10.38
2023-05-12T06:36:23.572Z,6.65
2023-05-12T06:39:26.850Z,6.83
2023-05-12T06:42:30.971Z,7.50
2023-05-12T06:45:34.061Z,7.15
2023-05-12T06:48:37.451Z,8.52
2023-05-12T06:51:40.633Z,9.10
2023-05-12T06:54:45.281Z,12.27
2023-05-12T06:57:48.589Z,9.90
2023-05-12T07:00:52.065Z,10.95
2023-05-12T07:03:55.375Z,8.48
2023-05-12T07:06:58.805Z,9.15
2023-05-12T07:10:01.953Z,8.20
2023-05-12T07:13:05.414Z,7.93
2023-05-12T07:16:08.561Z,8.43
2023-05-12T07:19:11.954Z,7.45
2023-05-12T07:22:15.002Z,9.50
2023-05-12T07:25:19.248Z,8.47
2023-05-12T07:28:27.835Z,7.85
2023-05-12T07:31:31.419Z,8.85
2023-05-12T07:34:35.390Z,8.70
2023-05-12T07:37:38.790Z,10.38
2023-05-12T07:40:41.903Z,8.60
2023-05-12T07:43:45.693Z,7.82
2023-05-12T07:46:48.755Z,10.00
2023-05-12T07:49:52.226Z,9.07
2023-05-12T07:52:55.813Z,11.52
2023-05-12T07:55:59.373Z,11.13
2023-05-12T07:59:02.658Z,9.52
2023-05-12T08:02:06.666Z,7.90
2023-05-12T08:05:11.356Z,9.48
2023-05-12T08:08:16.862Z,11.07
2023-05-12T08:11:20.238Z,10.80
2023-05-12T08:14:25.830Z,9.68
2023-05-12T08:17:29.489Z,11.05
2023-05-12T08:20:33.589Z,13.50
2023-05-12T08:23:39.652Z,11.95
2023-05-12T08:26:43.842Z,12.50
2023-05-12T08:29:47.426Z,11.20
2023-05-12T08:32:51.536Z,9.10
2023-05-12T08:35:55.313Z,10.57
2023-05-12T08:38:58.541Z,12.18
2023-05-12T08:42:13.651Z,9.00
2023-05-12T08:45:18.309Z,11.15
2023-05-12T08:48:23.396Z,10.23
2023-05-12T08:51:29.322Z,14.93
2023-05-12T08:54:36.081Z,10.27
2023-05-12T08:57:48.559Z,9.90
2023-05-12T09:00:52.289Z,10.73
2023-05-12T09:03:55.473Z,13.27
2023-05-12T09:06:59.467Z,11.60
2023-05-12T09:10:06.902Z,11.37
2023-05-12T09:13:41.044Z,12.60
2023-05-12T09:16:49.372Z,11.43
2023-05-12T09:19:52.973Z,10.88
2023-05-12T09:22:58.699Z,11.50
2023-05-12T09:26:02.368Z,11.38
2023-05-12T09:29:08.612Z,11.52
2023-05-12T09:32:13.272Z,12.65
2023-05-12T09:35:16.537Z,13.55
2023-05-12T09:38:22.277Z,14.68
2023-05-12T09:41:25.997Z,13.73
2023-05-12T09:44:30.447Z,13.27
2023-05-12T09:47:37.704Z,15.18
2023-05-12T09:50:47.792Z,12.87
2023-05-12T09:53:53.138Z,12.43
2023-05-12T09:57:05.262Z,13.13
2023-05-12T10:00:20.208Z,11.80
2023-05-12T10:03:36.392Z,14.35
2023-05-12T10:06:43.082Z,11.50
2023-05-12T10:09:48.615Z,12.27
2023-05-12T10:12:53.198Z,12.30
2023-05-12T10:15:58.943Z,16.55
2023-05-12T10:19:06.379Z,11.77
2023-05-12T10:22:11.578Z,11.52
2023-05-12T10:25:17.036Z,13.25
2023-05-12T10:28:22.594Z,12.25
2023-05-12T10:31:28.158Z,11.27
2023-05-12T10:34:37.788Z,13.00
2023-05-12T10:37:42.896Z,11.82
2023-05-12T10:40:58.350Z,10.70
2023-05-12T10:44:01.633Z,12.23
2023-05-12T10:47:16.796Z,12.13
2023-05-12T10:50:29.377Z,11.43
2023-05-12T10:53:48.276Z,12.57
2023-05-12T10:57:01.564Z,10.45
2023-05-12T11:00:05.872Z,11.60
2023-05-12T11:03:14.822Z,9.67
2023-05-12T11:06:22.921Z,10.25
2023-05-12T11:09:26.931Z,9.52
2023-05-12T11:12:34.104Z,9.38
2023-05-12T11:15:37.976Z,9.30
2023-05-12T11:18:41.444Z,7.87
2023-05-12T11:21:48.283Z,10.23
2023-05-12T11:24:53.128Z,9.48
2023-05-12T11:27:56.850Z,10.40
2023-05-12T11:31:01.955Z,9.48
2023-05-12T11:34:12.815Z,10.63
2023-05-12T11:37:21.419Z,9.25
2023-05-12T11:40:24.757Z,8.23
2023-05-12T11:43:28.883Z,10.60
2023-05-12T11:46:32.173Z,9.25
2023-05-12T11:49:49.497Z,9.80
2023-05-12T11:52:59.119Z,10.13
2023-05-12T11:56:02.425Z,9.23
2023-05-12T12:11:46.200Z,8.65
2023-05-12T12:14:52.626Z,9.50
2023-05-12T12:17:56.013Z,9.35
2023-05-12T12:20:59.361Z,9.13
2023-05-12T12:24:02.334Z,9.27
2023-05-12T12:27:06.128Z,9.38
2023-05-12T12:30:09.709Z,9.00
2023-05-12T12:33:13.459Z,10.73
2023-05-12T12:36:16.159Z,11.38
2023-05-12T12:39:20.097Z,10.38
2023-05-12T12:42:23.092Z,9.45
2023-05-12T12:45:26.636Z,12.13
2023-05-12T12:48:32.179Z,10.40
2023-05-12T12:51:45.461Z,8.80
2023-05-12T12:54:49.076Z,7.70
2023-05-12T12:57:52.322Z,7.87
2023-05-12T13:00:55.191Z,6.77
2023-05-12T13:04:00.416Z,8.15
2023-05-12T13:07:03.489Z,7.50
2023-05-12T13:10:07.150Z,9.48
2023-05-12T13:13:12.940Z,6.72
2023-05-12T13:16:16.127Z,7.60
2023-05-12T13:19:18.952Z,7.53
2023-05-12T13:22:22.892Z,8.43
2023-05-12T13:25:26.214Z,6.30
2023-05-12T13:28:30.911Z,7.35
2023-05-12T13:31:34.300Z,7.93
2023-05-12T13:34:37.730Z,7.70
2023-05-12T13:37:40.744Z,8.68
2023-05-12T13:40:43.996Z,8.00
2023-05-12T13:43:47.176Z,8.82
2023-05-12T13:46:50.670Z,8.40
2023-05-12T13:49:54.053Z,11.18
2023-05-12T13:52:58.693Z,8.77
2023-05-12T13:56:01.917Z,10.80
2023-05-12T13:59:06.221Z,7.37
2023-05-12T14:02:12.003Z,8.00
2023-05-12T14:05:15.743Z,9.75
2023-05-12T14:08:18.959Z,7.22
2023-05-12T14:11:23.056Z,7.12
2023-05-12T14:14:26.385Z,7.32
2023-05-12T14:17:30.064Z,8.30
2023-05-12T14:20:33.277Z,7.43
2023-05-12T14:23:36.857Z,7.35
2023-05-12T14:26:39.973Z,9.60
2023-05-12T14:29:43.349Z,9.10
2023-05-12T14:32:46.548Z,9.57
2023-05-12T14:35:59.252Z,8.27
2023-05-12T14:39:09.522Z,8.27
2023-05-12T14:42:12.882Z,10.75
2023-05-12T14:45:15.982Z,9.52
2023-05-12T14:48:19.331Z,8.47
2023-05-12T14:51:22.712Z,11.48
2023-05-12T14:54:26.312Z,9.90
2023-05-12T14:57:29.372Z,9.07
2023-05-12T15:00:33.503Z,9.02
2023-05-12T15:03:37.780Z,11.87
2023-05-12T15:06:41.206Z,10.85
2023-05-12T15:09:44.662Z,11.20
2023-05-12T15:12:48.076Z,9.98
2023-05-12T15:15:52.988Z,9.63
2023-05-12T15:18:58.835Z,10.20
2023-05-12T15:22:02.157Z,13.77
2023-05-12T15:25:06.132Z,10.02
2023-05-12T15:28:09.216Z,10.52
2023-05-12T15:31:12.730Z,9.95
2023-05-12T15:34:16.101Z,10.57
2023-05-12T15:37:21.852Z,10.30
2023-05-12T15:40:25.402Z,12.15
2023-05-12T15:43:29.594Z,13.23
2023-05-12T15:46:33.011Z,11.68
2023-05-12T15:49:36.512Z,11.23
2023-05-12T15:52:39.514Z,9.50
2023-05-12T15:55:43.616Z,9.90
2023-05-12T15:58:47.745Z,9.43
2023-05-12T16:01:51.349Z,8.27
2023-05-12T16:04:55.201Z,10.07
2023-05-12T16:07:59.090Z,8.60
2023-05-12T16:11:05.910Z,14.50
2023-05-12T16:14:09.327Z,9.68
2023-05-12T16:17:12.769Z,10.75
2023-05-12T16:20:15.884Z,10.93
2023-05-12T16:23:19.223Z,11.35
2023-05-12T16:26:23.795Z,11.98
2023-05-12T16:29:29.346Z,11.15
2023-05-12T16:32:32.468Z,11.93
2023-05-12T16:35:36.218Z,13.00
2023-05-12T16:38:39.231Z,14.43
2023-05-12T16:41:42.711Z,14.07
2023-05-12T16:44:46.291Z,14.38
2023-05-12T16:47:50.304Z,14.35
2023-05-12T16:51:02.559Z,14.90
2023-05-12T16:54:06.326Z,13.55
2023-05-12T16:57:09.438Z,14.75
2023-05-12T17:00:13.258Z,16.00
2023-05-12T17:03:16.534Z,16.70
2023-05-12T17:06:20.495Z,13.50
2023-05-12T17:09:23.854Z,13.82
2023-05-12T17:12:28.018Z,14.75
2023-05-12T17:15:32.168Z,10.77
2023-05-12T17:19:13.711Z,13.13
2023-05-12T17:21:58.645Z,17.03
2023-05-12T17:25:02.140Z,11.82
2023-05-12T17:28:06.208Z,12.98
2023-05-12T17:31:10.750Z,13.10
2023-05-12T17:34:13.993Z,12.93
2023-05-12T17:37:18.298Z,10.73
2023-05-12T17:40:22.512Z,13.70
2023-05-12T17:43:26.070Z,12.60
2023-05-12T17:46:29.652Z,16.70
2023-05-12T17:49:33.056Z,14.40
2023-05-12T17:52:37.290Z,16.77
2023-05-12T17:55:40.715Z,12.30
2023-05-12T17:58:43.895Z,14.43
2023-05-12T18:01:47.428Z,13.13
2023-05-12T18:04:50.910Z,15.73
2023-05-12T18:07:54.163Z,13.50
2023-05-12T18:10:57.751Z,12.77
2023-05-12T18:14:02.628Z,14.50
2023-05-12T18:17:06.329Z,15.43
2023-05-12T18:20:09.962Z,12.60
2023-05-12T18:23:13.572Z,13.50
2023-05-12T18:26:17.067Z,11.52
2023-05-12T18:29:21.594Z,12.30
2023-05-12T18:32:26.274Z,11.50
2023-05-12T18:35:30.901Z,11.43
2023-05-12T18:38:35.164Z,11.98
2023-05-12T18:41:39.845Z,16.25
2023-05-12T18:44:43.101Z,14.05
2023-05-12T18:47:46.715Z,15.15
2023-05-12T18:50:50.118Z,14.23
2023-05-12T18:53:53.969Z,14.15
2023-05-12T18:56:57.267Z,13.40
2023-05-12T19:00:01.426Z,16.27
2023-05-12T19:03:05.035Z,13.68
2023-05-12T19:06:08.592Z,15.17
2023-05-12T19:09:12.048Z,15.80
2023-05-12T19:12:15.586Z,14.02
2023-05-12T19:15:19.524Z,17.33
2023-05-12T19:18:23.464Z,16.12
2023-05-12T19:21:28.328Z,16.60
2023-05-12T19:24:35.460Z,14.73
2023-05-12T19:27:38.692Z,16.75
2023-05-12T19:30:43.618Z,14.30
2023-05-12T19:33:46.921Z,15.90
2023-05-12T19:36:54.361Z,15.53
2023-05-12T19:39:58.401Z,17.30
2023-05-12T19:43:02.338Z,17.20
2023-05-12T19:46:08.948Z,16.42
2023-05-12T19:49:14.462Z,18.62
2023-05-12T19:52:18.628Z,18.60
2023-05-12T19:55:22.554Z,16.02
2023-05-12T19:58:26.575Z,18.58
2023-05-12T20:01:30.574Z,17.73
2023-05-12T20:04:34.252Z,17.30
2023-05-12T20:07:37.752Z,16.87
2023-05-12T20:10:41.462Z,18.45
2023-05-12T20:13:44.551Z,15.65
2023-05-12T20:16:48.498Z,15.15
2023-05-12T20:19:51.614Z,17.70
2023-05-12T20:22:55.225Z,18.35
2023-05-12T20:25:58.448Z,16.15
2023-05-12T20:29:02.085Z,16.70
2023-05-12T20:32:05.549Z,17.10
2023-05-12T20:35:10.538Z,18.75
2023-05-12T20:38:14.439Z,17.37
2023-05-12T20:41:18.941Z,16.40
2023-05-12T20:44:23.144Z,17.45
2023-05-12T20:47:26.820Z,20.08
2023-05-12T20:50:30.834Z,20.37
2023-05-12T20:53:34.909Z,19.60
2023-05-12T20:56:38.465Z,20.17
2023-05-12T20:59:41.838Z,24.13
2023-05-12T21:02:45.605Z,22.60
2023-05-12T21:05:52.125Z,20.08
2023-05-12T21:08:55.816Z,20.80
2023-05-12T21:11:59.285Z,21.93
2023-05-12T21:15:02.552Z,18.95
2023-05-12T21:18:06.224Z,21.27
2023-05-12T21:21:09.576Z,21.37
2023-05-12T21:24:13.183Z,22.08
2023-05-12T21:27:16.525Z,19.80
2023-05-12T21:30:21.771Z,23.00
2023-05-12T21:33:26.319Z,21.33
2023-05-12T21:36:30.067Z,22.27
2023-05-12T21:39:34.100Z,25.77
2023-05-12T21:42:37.575Z,24.00
2023-05-12T21:45:40.821Z,21.33
2023-05-12T21:48:44.282Z,20.23
2023-05-12T21:51:47.456Z,25.35
2023-05-12T21:54:50.926Z,25.02
2023-05-12T21:57:54.019Z,25.33
2023-05-12T22:00:57.561Z,26.95
2023-05-12T22:04:01.020Z,22.75
2023-05-12T22:07:04.448Z,24.98
2023-05-12T22:10:08.062Z,28.75
2023-05-12T22:13:11.263Z,25.93
2023-05-12T22:16:14.764Z,25.92
2023-05-12T22:19:18.179Z,22.40
2023-05-12T22:22:22.078Z,23.62
2023-05-12T22:25:25.326Z,23.90
2023-05-12T22:28:28.633Z,26.97
2023-05-12T22:31:31.855Z,24.17
2023-05-12T22:34:35.384Z,27.65
2023-05-12T22:37:38.765Z,25.55
2023-05-12T22:40:43.035Z,25.45
2023-05-12T22:43:46.419Z,23.93
2023-05-12T22:46:49.854Z,23.48
2023-05-12T22:49:53.143Z,24.80
2023-05-12T22:52:58.114Z,26.62
2023-05-12T22:56:01.229Z,23.58
2023-05-12T22:59:04.653Z,21.00
2023-05-12T23:02:08.237Z,24.95
2023-05-12T23:05:11.885Z,23.17
2023-05-12T23:08:15.230Z,23.17
2023-05-12T23:11:18.880Z,24.00
2023-05-12T23:14:22.838Z,24.10
2023-05-12T23:17:26.516Z,24.30
2023-05-12T23:20:29.546Z,23.27
2023-05-12T23:23:33.290Z,22.67
2023-05-12T23:26:36.484Z,20.92
2023-05-12T23:29:39.890Z,22.40
2023-05-12T23:32:43.119Z,22.77
2023-05-12T23:35:46.598Z,20.67
2023-05-12T23:38:53.760Z,25.12
2023-05-12T23:41:57.187Z,24.33
2023-05-12T23:45:00.586Z,25.27
2023-05-12T23:48:04.129Z,23.83
2023-05-12T23:51:07.445Z,25.58
2023-05-12T23:54:10.940Z,24.20
2023-05-12T23:57:14.281Z,19.57
